sensor_id;sensor_type;location;lat;lon;timestamp;temperature;humidity
65836;SHT30;52595;51.608;7.216;2023-06-19T00:01:43;23.64;59.55
65836;SHT30;52595;51.608;7.216;2023-06-19T00:04:10;23.61;59.65
65836;SHT30;52595;51.608;7.216;2023-06-19T00:06:35;23.63;59.81
65836;SHT30;52595;51.608;7.216;2023-06-19T00:09:01;23.56;59.95
65836;SHT30;52595;51.608;7.216;2023-06-19T00:11:26;23.47;60.48
65836;SHT30;52595;51.608;7.216;2023-06-19T00:13:52;23.45;60.33
65836;SHT30;52595;51.608;7.216;2023-06-19T00:16:17;23.45;60.43
65836;SHT30;52595;51.608;7.216;2023-06-19T00:18:44;23.39;60.52
65836;SHT30;52595;51.608;7.216;2023-06-19T00:21:10;23.38;60.65
65836;SHT30;52595;51.608;7.216;2023-06-19T00:23:35;23.40;60.37
65836;SHT30;52595;51.608;7.216;2023-06-19T00:26:00;23.40;60.35
65836;SHT30;52595;51.608;7.216;2023-06-19T00:28:29;23.36;60.39
65836;SHT30;52595;51.608;7.216;2023-06-19T00:30:55;23.30;60.56
65836;SHT30;52595;51.608;7.216;2023-06-19T00:33:20;23.29;60.62
65836;SHT30;52595;51.608;7.216;2023-06-19T00:35:47;23.20;60.78
65836;SHT30;52595;51.608;7.216;2023-06-19T00:38:12;23.15;61.00
65836;SHT30;52595;51.608;7.216;2023-06-19T00:40:37;23.06;61.07
65836;SHT30;52595;51.608;7.216;2023-06-19T00:43:03;23.08;61.17
65836;SHT30;52595;51.608;7.216;2023-06-19T00:45:29;23.05;61.21
65836;SHT30;52595;51.608;7.216;2023-06-19T00:47:55;23.05;61.18
65836;SHT30;52595;51.608;7.216;2023-06-19T00:50:21;22.99;61.56
65836;SHT30;52595;51.608;7.216;2023-06-19T00:52:47;22.89;61.63
65836;SHT30;52595;51.608;7.216;2023-06-19T00:55:13;22.91;61.91
65836;SHT30;52595;51.608;7.216;2023-06-19T00:57:39;22.81;62.01
65836;SHT30;52595;51.608;7.216;2023-06-19T01:00:06;22.82;62.19
65836;SHT30;52595;51.608;7.216;2023-06-19T01:02:33;22.82;62.25
65836;SHT30;52595;51.608;7.216;2023-06-19T01:04:58;22.73;62.64
65836;SHT30;52595;51.608;7.216;2023-06-19T01:07:43;22.71;62.81
65836;SHT30;52595;51.608;7.216;2023-06-19T01:10:15;22.65;62.99
65836;SHT30;52595;51.608;7.216;2023-06-19T01:12:55;22.56;63.21
65836;SHT30;52595;51.608;7.216;2023-06-19T01:15:22;22.58;63.50
65836;SHT30;52595;51.608;7.216;2023-06-19T01:17:48;22.49;63.76
65836;SHT30;52595;51.608;7.216;2023-06-19T01:20:14;22.51;63.71
65836;SHT30;52595;51.608;7.216;2023-06-19T01:22:40;22.49;63.83
65836;SHT30;52595;51.608;7.216;2023-06-19T01:25:09;22.48;64.01
65836;SHT30;52595;51.608;7.216;2023-06-19T01:27:35;22.48;64.49
65836;SHT30;52595;51.608;7.216;2023-06-19T01:30:02;22.48;64.17
65836;SHT30;52595;51.608;7.216;2023-06-19T01:35:28;22.48;64.25
65836;SHT30;52595;51.608;7.216;2023-06-19T01:37:54;22.51;64.23
65836;SHT30;52595;51.608;7.216;2023-06-19T01:40:20;22.58;64.09
65836;SHT30;52595;51.608;7.216;2023-06-19T01:42:51;22.54;64.19
65836;SHT30;52595;51.608;7.216;2023-06-19T01:45:17;22.54;64.36
65836;SHT30;52595;51.608;7.216;2023-06-19T01:47:42;22.49;64.44
65836;SHT30;52595;51.608;7.216;2023-06-19T01:50:09;22.40;64.83
65836;SHT30;52595;51.608;7.216;2023-06-19T01:52:35;22.31;64.95
65836;SHT30;52595;51.608;7.216;2023-06-19T01:55:01;22.24;65.15
65836;SHT30;52595;51.608;7.216;2023-06-19T01:57:26;22.04;65.63
65836;SHT30;52595;51.608;7.216;2023-06-19T01:59:51;21.94;66.36
65836;SHT30;52595;51.608;7.216;2023-06-19T02:02:17;21.81;66.65
65836;SHT30;52595;51.608;7.216;2023-06-19T02:04:42;21.81;66.97
65836;SHT30;52595;51.608;7.216;2023-06-19T02:07:08;21.70;67.19
65836;SHT30;52595;51.608;7.216;2023-06-19T02:09:33;21.63;67.66
65836;SHT30;52595;51.608;7.216;2023-06-19T02:11:58;21.53;68.01
65836;SHT30;52595;51.608;7.216;2023-06-19T02:14:24;21.47;68.44
65836;SHT30;52595;51.608;7.216;2023-06-19T02:16:49;21.45;68.61
65836;SHT30;52595;51.608;7.216;2023-06-19T02:19:14;21.45;68.72
65836;SHT30;52595;51.608;7.216;2023-06-19T02:21:40;21.45;68.66
65836;SHT30;52595;51.608;7.216;2023-06-19T02:24:05;21.42;68.81
65836;SHT30;52595;51.608;7.216;2023-06-19T02:26:31;21.43;68.84
65836;SHT30;52595;51.608;7.216;2023-06-19T02:28:56;21.42;68.99
65836;SHT30;52595;51.608;7.216;2023-06-19T02:31:22;21.40;69.28
65836;SHT30;52595;51.608;7.216;2023-06-19T02:33:48;21.43;69.17
65836;SHT30;52595;51.608;7.216;2023-06-19T02:36:14;21.45;68.88
65836;SHT30;52595;51.608;7.216;2023-06-19T02:38:50;21.49;69.27
65836;SHT30;52595;51.608;7.216;2023-06-19T02:41:16;21.50;69.05
65836;SHT30;52595;51.608;7.216;2023-06-19T02:43:43;21.60;68.98
65836;SHT30;52595;51.608;7.216;2023-06-19T02:46:09;21.60;69.24
65836;SHT30;52595;51.608;7.216;2023-06-19T02:48:34;21.53;69.38
65836;SHT30;52595;51.608;7.216;2023-06-19T02:51:00;21.53;69.19
65836;SHT30;52595;51.608;7.216;2023-06-19T02:53:25;21.51;69.20
65836;SHT30;52595;51.608;7.216;2023-06-19T02:55:51;21.43;69.44
65836;SHT30;52595;51.608;7.216;2023-06-19T02:58:16;21.45;69.44
65836;SHT30;52595;51.608;7.216;2023-06-19T03:00:42;21.47;69.59
65836;SHT30;52595;51.608;7.216;2023-06-19T03:03:07;21.46;69.45
65836;SHT30;52595;51.608;7.216;2023-06-19T03:05:32;21.60;69.04
65836;SHT30;52595;51.608;7.216;2023-06-19T03:07:58;21.69;68.20
65836;SHT30;52595;51.608;7.216;2023-06-19T03:10:23;21.79;67.78
65836;SHT30;52595;51.608;7.216;2023-06-19T03:12:49;21.81;67.74
65836;SHT30;52595;51.608;7.216;2023-06-19T03:15:14;21.80;67.77
65836;SHT30;52595;51.608;7.216;2023-06-19T03:17:39;21.77;67.72
65836;SHT30;52595;51.608;7.216;2023-06-19T03:20:05;21.87;67.17
65836;SHT30;52595;51.608;7.216;2023-06-19T03:22:31;21.91;66.90
65836;SHT30;52595;51.608;7.216;2023-06-19T03:24:57;21.96;66.63
65836;SHT30;52595;51.608;7.216;2023-06-19T03:27:22;22.01;66.55
65836;SHT30;52595;51.608;7.216;2023-06-19T03:29:52;22.07;66.25
65836;SHT30;52595;51.608;7.216;2023-06-19T03:32:18;22.08;66.23
65836;SHT30;52595;51.608;7.216;2023-06-19T03:34:44;22.08;66.36
65836;SHT30;52595;51.608;7.216;2023-06-19T03:37:09;22.13;66.43
65836;SHT30;52595;51.608;7.216;2023-06-19T03:39:35;22.08;66.68
65836;SHT30;52595;51.608;7.216;2023-06-19T03:42:00;22.05;66.96
65836;SHT30;52595;51.608;7.216;2023-06-19T03:44:25;22.04;67.28
65836;SHT30;52595;51.608;7.216;2023-06-19T03:46:51;22.01;67.63
65836;SHT30;52595;51.608;7.216;2023-06-19T03:49:16;22.04;67.93
65836;SHT30;52595;51.608;7.216;2023-06-19T03:51:44;21.98;68.19
65836;SHT30;52595;51.608;7.216;2023-06-19T03:54:09;21.94;68.49
65836;SHT30;52595;51.608;7.216;2023-06-19T03:56:34;21.93;68.88
65836;SHT30;52595;51.608;7.216;2023-06-19T03:59:00;21.87;69.08
65836;SHT30;52595;51.608;7.216;2023-06-19T04:01:25;21.83;69.44
65836;SHT30;52595;51.608;7.216;2023-06-19T04:03:51;21.77;69.87
65836;SHT30;52595;51.608;7.216;2023-06-19T04:06:16;21.71;70.27
65836;SHT30;52595;51.608;7.216;2023-06-19T04:08:42;21.69;70.54
65836;SHT30;52595;51.608;7.216;2023-06-19T04:11:07;21.66;71.06
65836;SHT30;52595;51.608;7.216;2023-06-19T04:13:32;21.64;71.11
65836;SHT30;52595;51.608;7.216;2023-06-19T04:15:58;21.63;71.52
65836;SHT30;52595;51.608;7.216;2023-06-19T04:18:23;21.66;71.55
65836;SHT30;52595;51.608;7.216;2023-06-19T04:20:49;21.63;71.81
65836;SHT30;52595;51.608;7.216;2023-06-19T04:23:14;21.60;71.94
65836;SHT30;52595;51.608;7.216;2023-06-19T04:25:39;21.53;72.42
65836;SHT30;52595;51.608;7.216;2023-06-19T04:28:05;21.50;72.39
65836;SHT30;52595;51.608;7.216;2023-06-19T04:30:30;21.43;72.61
65836;SHT30;52595;51.608;7.216;2023-06-19T04:32:59;21.40;72.95
65836;SHT30;52595;51.608;7.216;2023-06-19T04:35:24;21.39;72.95
65836;SHT30;52595;51.608;7.216;2023-06-19T04:37:50;21.36;73.10
65836;SHT30;52595;51.608;7.216;2023-06-19T04:40:15;21.30;73.55
65836;SHT30;52595;51.608;7.216;2023-06-19T04:42:41;21.26;73.69
65836;SHT30;52595;51.608;7.216;2023-06-19T04:45:07;21.26;73.77
65836;SHT30;52595;51.608;7.216;2023-06-19T04:47:33;21.22;74.07
65836;SHT30;52595;51.608;7.216;2023-06-19T04:49:59;21.23;74.21
65836;SHT30;52595;51.608;7.216;2023-06-19T04:52:24;21.19;74.32
65836;SHT30;52595;51.608;7.216;2023-06-19T04:54:50;21.18;74.36
65836;SHT30;52595;51.608;7.216;2023-06-19T04:57:15;21.10;74.60
65836;SHT30;52595;51.608;7.216;2023-06-19T04:59:42;21.05;74.83
65836;SHT30;52595;51.608;7.216;2023-06-19T05:02:09;21.06;74.82
65836;SHT30;52595;51.608;7.216;2023-06-19T05:04:34;21.03;74.96
65836;SHT30;52595;51.608;7.216;2023-06-19T05:07:00;21.03;75.04
65836;SHT30;52595;51.608;7.216;2023-06-19T05:09:25;21.03;75.34
65836;SHT30;52595;51.608;7.216;2023-06-19T05:11:50;21.00;75.46
65836;SHT30;52595;51.608;7.216;2023-06-19T05:14:16;21.02;75.54
65836;SHT30;52595;51.608;7.216;2023-06-19T05:16:41;21.00;75.77
65836;SHT30;52595;51.608;7.216;2023-06-19T05:19:07;20.94;75.92
65836;SHT30;52595;51.608;7.216;2023-06-19T05:21:32;20.92;76.10
65836;SHT30;52595;51.608;7.216;2023-06-19T05:23:57;20.85;76.39
65836;SHT30;52595;51.608;7.216;2023-06-19T05:26:23;20.85;76.51
65836;SHT30;52595;51.608;7.216;2023-06-19T05:28:49;20.84;76.26
65836;SHT30;52595;51.608;7.216;2023-06-19T05:31:15;20.82;76.16
65836;SHT30;52595;51.608;7.216;2023-06-19T05:33:41;20.72;76.40
65836;SHT30;52595;51.608;7.216;2023-06-19T05:36:06;20.72;76.69
65836;SHT30;52595;51.608;7.216;2023-06-19T05:38:32;20.74;76.56
65836;SHT30;52595;51.608;7.216;2023-06-19T05:40:57;20.81;76.52
65836;SHT30;52595;51.608;7.216;2023-06-19T05:43:23;20.89;76.25
65836;SHT30;52595;51.608;7.216;2023-06-19T05:45:50;21.00;75.76
65836;SHT30;52595;51.608;7.216;2023-06-19T05:48:15;21.19;75.07
65836;SHT30;52595;51.608;7.216;2023-06-19T05:50:41;21.22;75.39
65836;SHT30;52595;51.608;7.216;2023-06-19T05:53:06;21.32;75.27
65836;SHT30;52595;51.608;7.216;2023-06-19T05:55:31;21.33;75.30
65836;SHT30;52595;51.608;7.216;2023-06-19T05:57:57;21.26;75.57
65836;SHT30;52595;51.608;7.216;2023-06-19T06:00:22;21.26;75.60
65836;SHT30;52595;51.608;7.216;2023-06-19T06:02:48;21.32;75.50
65836;SHT30;52595;51.608;7.216;2023-06-19T06:05:16;21.32;75.64
65836;SHT30;52595;51.608;7.216;2023-06-19T06:07:42;21.26;75.65
65836;SHT30;52595;51.608;7.216;2023-06-19T06:10:08;21.18;76.09
65836;SHT30;52595;51.608;7.216;2023-06-19T06:12:34;21.10;76.39
65836;SHT30;52595;51.608;7.216;2023-06-19T06:15:01;21.26;76.21
65836;SHT30;52595;51.608;7.216;2023-06-19T06:17:27;21.33;75.67
65836;SHT30;52595;51.608;7.216;2023-06-19T06:19:52;21.19;75.81
65836;SHT30;52595;51.608;7.216;2023-06-19T06:22:18;20.95;76.63
65836;SHT30;52595;51.608;7.216;2023-06-19T06:24:44;20.86;77.05
65836;SHT30;52595;51.608;7.216;2023-06-19T06:27:09;20.86;77.33
65836;SHT30;52595;51.608;7.216;2023-06-19T06:29:35;20.89;77.32
65836;SHT30;52595;51.608;7.216;2023-06-19T06:32:06;20.99;77.16
65836;SHT30;52595;51.608;7.216;2023-06-19T06:34:33;21.18;76.73
65836;SHT30;52595;51.608;7.216;2023-06-19T06:36:59;21.22;76.71
65836;SHT30;52595;51.608;7.216;2023-06-19T06:39:24;21.16;76.73
65836;SHT30;52595;51.608;7.216;2023-06-19T06:41:50;21.13;76.81
65836;SHT30;52595;51.608;7.216;2023-06-19T06:44:15;21.23;76.39
65836;SHT30;52595;51.608;7.216;2023-06-19T06:46:41;21.18;76.16
65836;SHT30;52595;51.608;7.216;2023-06-19T06:49:06;21.43;76.14
65836;SHT30;52595;51.608;7.216;2023-06-19T06:51:31;21.54;75.52
65836;SHT30;52595;51.608;7.216;2023-06-19T06:53:57;21.46;75.95
65836;SHT30;52595;51.608;7.216;2023-06-19T06:56:22;21.30;76.07
65836;SHT30;52595;51.608;7.216;2023-06-19T06:58:48;21.47;75.44
65836;SHT30;52595;51.608;7.216;2023-06-19T07:01:13;21.45;75.11
65836;SHT30;52595;51.608;7.216;2023-06-19T07:03:38;21.51;75.46
65836;SHT30;52595;51.608;7.216;2023-06-19T07:06:04;21.33;75.84
65836;SHT30;52595;51.608;7.216;2023-06-19T07:08:30;21.39;75.80
65836;SHT30;52595;51.608;7.216;2023-06-19T07:10:55;21.47;75.54
65836;SHT30;52595;51.608;7.216;2023-06-19T07:13:21;21.30;75.60
65836;SHT30;52595;51.608;7.216;2023-06-19T07:15:46;21.45;75.58
65836;SHT30;52595;51.608;7.216;2023-06-19T07:18:11;21.64;75.32
65836;SHT30;52595;51.608;7.216;2023-06-19T07:20:37;21.61;75.50
65836;SHT30;52595;51.608;7.216;2023-06-19T07:23:02;21.59;75.35
65836;SHT30;52595;51.608;7.216;2023-06-19T07:25:28;21.74;75.04
65836;SHT30;52595;51.608;7.216;2023-06-19T07:27:53;21.74;74.97
65836;SHT30;52595;51.608;7.216;2023-06-19T07:30:19;21.90;74.55
65836;SHT30;52595;51.608;7.216;2023-06-19T07:32:44;21.87;74.33
65836;SHT30;52595;51.608;7.216;2023-06-19T07:35:09;21.87;74.44
65836;SHT30;52595;51.608;7.216;2023-06-19T07:37:36;21.66;74.96
65836;SHT30;52595;51.608;7.216;2023-06-19T07:40:02;21.63;75.27
65836;SHT30;52595;51.608;7.216;2023-06-19T07:42:28;21.43;75.74
65836;SHT30;52595;51.608;7.216;2023-06-19T07:44:53;21.43;76.12
65836;SHT30;52595;51.608;7.216;2023-06-19T07:47:18;21.54;76.27
65836;SHT30;52595;51.608;7.216;2023-06-19T07:49:45;21.67;75.95
65836;SHT30;52595;51.608;7.216;2023-06-19T07:52:11;21.73;75.32
65836;SHT30;52595;51.608;7.216;2023-06-19T07:54:47;21.47;76.35
65836;SHT30;52595;51.608;7.216;2023-06-19T07:57:12;21.33;76.66
65836;SHT30;52595;51.608;7.216;2023-06-19T07:59:37;21.16;77.41
65836;SHT30;52595;51.608;7.216;2023-06-19T08:02:03;21.00;78.10
65836;SHT30;52595;51.608;7.216;2023-06-19T08:04:28;21.16;78.02
65836;SHT30;52595;51.608;7.216;2023-06-19T08:06:54;20.96;78.98
65836;SHT30;52595;51.608;7.216;2023-06-19T08:09:19;20.99;79.18
65836;SHT30;52595;51.608;7.216;2023-06-19T08:11:44;21.12;78.78
65836;SHT30;52595;51.608;7.216;2023-06-19T08:14:10;20.84;80.05
65836;SHT30;52595;51.608;7.216;2023-06-19T08:16:35;20.86;80.09
65836;SHT30;52595;51.608;7.216;2023-06-19T08:19:00;21.28;79.10
65836;SHT30;52595;51.608;7.216;2023-06-19T08:21:26;21.54;78.09
65836;SHT30;52595;51.608;7.216;2023-06-19T08:23:51;21.53;78.29
65836;SHT30;52595;51.608;7.216;2023-06-19T08:26:17;22.14;76.61
65836;SHT30;52595;51.608;7.216;2023-06-19T08:28:43;22.13;76.42
65836;SHT30;52595;51.608;7.216;2023-06-19T08:31:09;21.73;77.60
65836;SHT30;52595;51.608;7.216;2023-06-19T08:33:35;21.79;77.81
65836;SHT30;52595;51.608;7.216;2023-06-19T08:36:00;21.70;77.24
65836;SHT30;52595;51.608;7.216;2023-06-19T08:38:26;22.14;76.73
65836;SHT30;52595;51.608;7.216;2023-06-19T08:40:51;22.25;76.21
65836;SHT30;52595;51.608;7.216;2023-06-19T08:43:17;22.59;75.67
65836;SHT30;52595;51.608;7.216;2023-06-19T08:45:42;22.48;74.76
65836;SHT30;52595;51.608;7.216;2023-06-19T08:48:13;22.24;75.70
65836;SHT30;52595;51.608;7.216;2023-06-19T08:50:38;22.69;74.91
65836;SHT30;52595;51.608;7.216;2023-06-19T08:53:04;23.19;73.64
65836;SHT30;52595;51.608;7.216;2023-06-19T08:55:29;22.99;73.72
65836;SHT30;52595;51.608;7.216;2023-06-19T08:57:55;22.94;73.77
65836;SHT30;52595;51.608;7.216;2023-06-19T09:00:27;22.72;74.59
65836;SHT30;52595;51.608;7.216;2023-06-19T09:03:00;23.00;73.15
65836;SHT30;52595;51.608;7.216;2023-06-19T09:05:27;22.69;74.05
65836;SHT30;52595;51.608;7.216;2023-06-19T09:07:57;22.98;73.19
65836;SHT30;52595;51.608;7.216;2023-06-19T09:10:26;22.98;72.29
65836;SHT30;52595;51.608;7.216;2023-06-19T09:13:02;23.33;71.67
65836;SHT30;52595;51.608;7.216;2023-06-19T09:15:31;23.57;70.24
65836;SHT30;52595;51.608;7.216;2023-06-19T09:20:27;22.94;71.25
65836;SHT30;52595;51.608;7.216;2023-06-19T09:22:57;23.09;71.36
65836;SHT30;52595;51.608;7.216;2023-06-19T09:25:22;23.23;70.62
65836;SHT30;52595;51.608;7.216;2023-06-19T09:27:49;23.05;70.93
65836;SHT30;52595;51.608;7.216;2023-06-19T09:30:15;23.43;69.77
65836;SHT30;52595;51.608;7.216;2023-06-19T09:32:40;23.64;69.38
65836;SHT30;52595;51.608;7.216;2023-06-19T09:35:06;23.94;69.07
65836;SHT30;52595;51.608;7.216;2023-06-19T09:37:31;23.61;69.31
65836;SHT30;52595;51.608;7.216;2023-06-19T09:40:01;23.78;68.94
65836;SHT30;52595;51.608;7.216;2023-06-19T09:42:41;24.03;68.44
65836;SHT30;52595;51.608;7.216;2023-06-19T09:45:09;23.87;68.69
65836;SHT30;52595;51.608;7.216;2023-06-19T09:47:41;24.11;68.84
65836;SHT30;52595;51.608;7.216;2023-06-19T09:50:08;23.75;69.31
65836;SHT30;52595;51.608;7.216;2023-06-19T09:52:34;23.75;69.24
65836;SHT30;52595;51.608;7.216;2023-06-19T09:55:02;23.66;69.47
65836;SHT30;52595;51.608;7.216;2023-06-19T09:57:28;23.91;68.33
65836;SHT30;52595;51.608;7.216;2023-06-19T09:59:56;23.80;68.83
65836;SHT30;52595;51.608;7.216;2023-06-19T10:02:22;23.84;69.38
65836;SHT30;52595;51.608;7.216;2023-06-19T10:04:54;24.17;67.48
65836;SHT30;52595;51.608;7.216;2023-06-19T10:07:31;24.28;67.34
65836;SHT30;52595;51.608;7.216;2023-06-19T10:10:08;24.26;66.21
65836;SHT30;52595;51.608;7.216;2023-06-19T10:12:44;24.00;66.57
65836;SHT30;52595;51.608;7.216;2023-06-19T10:17:36;24.07;66.00
65836;SHT30;52595;51.608;7.216;2023-06-19T10:20:02;24.41;65.59
65836;SHT30;52595;51.608;7.216;2023-06-19T10:22:31;24.78;65.38
65836;SHT30;52595;51.608;7.216;2023-06-19T10:24:57;25.34;64.63
65836;SHT30;52595;51.608;7.216;2023-06-19T10:27:26;24.93;64.10
65836;SHT30;52595;51.608;7.216;2023-06-19T10:29:55;24.98;64.19
65836;SHT30;52595;51.608;7.216;2023-06-19T10:32:23;24.76;64.01
65836;SHT30;52595;51.608;7.216;2023-06-19T10:34:48;25.07;64.20
65836;SHT30;52595;51.608;7.216;2023-06-19T10:37:15;24.79;63.19
65836;SHT30;52595;51.608;7.216;2023-06-19T10:39:41;24.34;64.09
65836;SHT30;52595;51.608;7.216;2023-06-19T10:42:07;24.35;64.36
65836;SHT30;52595;51.608;7.216;2023-06-19T10:44:33;24.80;62.64
65836;SHT30;52595;51.608;7.216;2023-06-19T10:47:00;25.36;61.66
65836;SHT30;52595;51.608;7.216;2023-06-19T10:49:26;25.73;60.75
65836;SHT30;52595;51.608;7.216;2023-06-19T10:51:52;25.85;60.55
65836;SHT30;52595;51.608;7.216;2023-06-19T10:54:22;25.40;59.72
65836;SHT30;52595;51.608;7.216;2023-06-19T10:56:47;25.69;58.77
65836;SHT30;52595;51.608;7.216;2023-06-19T10:59:13;25.88;58.59
65836;SHT30;52595;51.608;7.216;2023-06-19T11:01:48;26.01;59.09
65836;SHT30;52595;51.608;7.216;2023-06-19T11:04:16;26.39;57.59
65836;SHT30;52595;51.608;7.216;2023-06-19T11:06:43;26.01;58.40
65836;SHT30;52595;51.608;7.216;2023-06-19T11:09:10;26.18;58.29
65836;SHT30;52595;51.608;7.216;2023-06-19T11:11:40;26.49;56.66
65836;SHT30;52595;51.608;7.216;2023-06-19T11:14:06;27.34;55.11
65836;SHT30;52595;51.608;7.216;2023-06-19T11:16:33;27.24;55.89
65836;SHT30;52595;51.608;7.216;2023-06-19T11:18:59;27.49;54.45
65836;SHT30;52595;51.608;7.216;2023-06-19T11:21:36;27.61;54.46
65836;SHT30;52595;51.608;7.216;2023-06-19T11:24:14;26.80;55.69
65836;SHT30;52595;51.608;7.216;2023-06-19T11:26:41;27.31;54.98
65836;SHT30;52595;51.608;7.216;2023-06-19T11:31:48;26.63;56.29
65836;SHT30;52595;51.608;7.216;2023-06-19T11:34:14;27.09;55.57
65836;SHT30;52595;51.608;7.216;2023-06-19T11:36:41;27.03;55.67
65836;SHT30;52595;51.608;7.216;2023-06-19T11:39:14;27.54;54.75
65836;SHT30;52595;51.608;7.216;2023-06-19T11:41:40;27.49;54.13
65836;SHT30;52595;51.608;7.216;2023-06-19T11:44:07;27.03;54.80
65836;SHT30;52595;51.608;7.216;2023-06-19T11:46:34;27.37;54.37
65836;SHT30;52595;51.608;7.216;2023-06-19T11:49:13;27.31;54.19
65836;SHT30;52595;51.608;7.216;2023-06-19T11:51:39;28.53;52.20
65836;SHT30;52595;51.608;7.216;2023-06-19T11:54:06;28.00;51.16
65836;SHT30;52595;51.608;7.216;2023-06-19T11:56:32;28.49;51.32
65836;SHT30;52595;51.608;7.216;2023-06-19T11:58:57;27.74;52.16
65836;SHT30;52595;51.608;7.216;2023-06-19T12:01:23;27.23;53.50
65836;SHT30;52595;51.608;7.216;2023-06-19T12:03:48;28.90;51.22
65836;SHT30;52595;51.608;7.216;2023-06-19T12:06:14;29.61;48.75
65836;SHT30;52595;51.608;7.216;2023-06-19T12:08:39;29.10;49.63
65836;SHT30;52595;51.608;7.216;2023-06-19T12:11:04;28.29;50.51
65836;SHT30;52595;51.608;7.216;2023-06-19T12:13:33;27.95;51.52
65836;SHT30;52595;51.608;7.216;2023-06-19T12:15:58;29.35;48.31
65836;SHT30;52595;51.608;7.216;2023-06-19T12:18:24;28.59;49.11
65836;SHT30;52595;51.608;7.216;2023-06-19T12:20:49;28.83;49.07
65836;SHT30;52595;51.608;7.216;2023-06-19T12:23:14;29.65;47.85
65836;SHT30;52595;51.608;7.216;2023-06-19T12:25:40;30.26;46.78
65836;SHT30;52595;51.608;7.216;2023-06-19T12:28:05;30.42;46.19
65836;SHT30;52595;51.608;7.216;2023-06-19T12:30:34;30.36;45.95
65836;SHT30;52595;51.608;7.216;2023-06-19T12:32:59;31.28;44.90
65836;SHT30;52595;51.608;7.216;2023-06-19T12:35:24;31.24;44.98
65836;SHT30;52595;51.608;7.216;2023-06-19T12:37:51;30.84;45.13
65836;SHT30;52595;51.608;7.216;2023-06-19T12:40:17;30.46;46.18
65836;SHT30;52595;51.608;7.216;2023-06-19T12:42:43;30.86;46.24
65836;SHT30;52595;51.608;7.216;2023-06-19T12:45:09;31.40;45.53
65836;SHT30;52595;51.608;7.216;2023-06-19T12:47:35;31.26;45.60
65836;SHT30;52595;51.608;7.216;2023-06-19T12:50:01;30.05;46.76
65836;SHT30;52595;51.608;7.216;2023-06-19T12:52:26;29.74;47.02
65836;SHT30;52595;51.608;7.216;2023-06-19T12:54:52;29.61;47.29
65836;SHT30;52595;51.608;7.216;2023-06-19T12:57:17;30.09;46.80
65836;SHT30;52595;51.608;7.216;2023-06-19T12:59:43;29.58;47.63
65836;SHT30;52595;51.608;7.216;2023-06-19T13:02:08;29.70;47.38
65836;SHT30;52595;51.608;7.216;2023-06-19T13:04:33;29.65;46.77
65836;SHT30;52595;51.608;7.216;2023-06-19T13:06:59;30.02;47.22
65836;SHT30;52595;51.608;7.216;2023-06-19T13:09:24;30.04;46.35
65836;SHT30;52595;51.608;7.216;2023-06-19T13:11:49;29.62;47.38
65836;SHT30;52595;51.608;7.216;2023-06-19T13:14:15;29.17;47.92
65836;SHT30;52595;51.608;7.216;2023-06-19T13:16:40;28.80;47.81
65836;SHT30;52595;51.608;7.216;2023-06-19T13:19:06;29.11;47.57
65836;SHT30;52595;51.608;7.216;2023-06-19T13:21:31;29.80;47.00
65836;SHT30;52595;51.608;7.216;2023-06-19T13:23:56;30.36;46.40
65836;SHT30;52595;51.608;7.216;2023-06-19T13:26:22;30.70;45.50
65836;SHT30;52595;51.608;7.216;2023-06-19T13:28:47;30.32;46.35
65836;SHT30;52595;51.608;7.216;2023-06-19T13:31:13;30.66;46.59
65836;SHT30;52595;51.608;7.216;2023-06-19T13:33:38;31.01;45.65
65836;SHT30;52595;51.608;7.216;2023-06-19T13:36:04;30.83;44.96
65836;SHT30;52595;51.608;7.216;2023-06-19T13:38:29;31.30;44.03
65836;SHT30;52595;51.608;7.216;2023-06-19T13:40:55;31.45;43.73
65836;SHT30;52595;51.608;7.216;2023-06-19T13:43:21;31.92;43.11
65836;SHT30;52595;51.608;7.216;2023-06-19T13:45:49;31.31;42.84
65836;SHT30;52595;51.608;7.216;2023-06-19T13:48:14;31.23;44.18
65836;SHT30;52595;51.608;7.216;2023-06-19T13:50:39;29.34;45.98
65836;SHT30;52595;51.608;7.216;2023-06-19T13:53:05;30.12;44.40
65836;SHT30;52595;51.608;7.216;2023-06-19T13:55:30;31.65;42.41
65836;SHT30;52595;51.608;7.216;2023-06-19T13:57:56;31.42;42.84
65836;SHT30;52595;51.608;7.216;2023-06-19T14:00:21;31.80;43.17
65836;SHT30;52595;51.608;7.216;2023-06-19T14:02:47;32.63;41.20
65836;SHT30;52595;51.608;7.216;2023-06-19T14:05:12;33.48;40.30
65836;SHT30;52595;51.608;7.216;2023-06-19T14:07:41;34.69;39.42
65836;SHT30;52595;51.608;7.216;2023-06-19T14:10:09;34.51;38.42
65836;SHT30;52595;51.608;7.216;2023-06-19T14:12:35;34.21;38.12
65836;SHT30;52595;51.608;7.216;2023-06-19T14:15:00;32.93;39.71
65836;SHT30;52595;51.608;7.216;2023-06-19T14:17:26;32.05;40.78
65836;SHT30;52595;51.608;7.216;2023-06-19T14:19:52;31.21;40.83
65836;SHT30;52595;51.608;7.216;2023-06-19T14:22:17;31.16;40.11
65836;SHT30;52595;51.608;7.216;2023-06-19T14:24:43;32.19;39.74
65836;SHT30;52595;51.608;7.216;2023-06-19T14:27:08;33.54;38.51
65836;SHT30;52595;51.608;7.216;2023-06-19T14:29:34;34.31;37.15
65836;SHT30;52595;51.608;7.216;2023-06-19T14:31:59;33.72;38.20
65836;SHT30;52595;51.608;7.216;2023-06-19T14:34:25;34.53;36.81
65836;SHT30;52595;51.608;7.216;2023-06-19T14:36:50;35.18;35.44
65836;SHT30;52595;51.608;7.216;2023-06-19T14:39:16;33.97;37.45
65836;SHT30;52595;51.608;7.216;2023-06-19T14:41:42;33.04;39.25
65836;SHT30;52595;51.608;7.216;2023-06-19T14:44:07;32.51;39.24
65836;SHT30;52595;51.608;7.216;2023-06-19T14:46:32;33.13;38.86
65836;SHT30;52595;51.608;7.216;2023-06-19T14:48:58;31.70;40.27
65836;SHT30;52595;51.608;7.216;2023-06-19T14:51:26;31.51;41.06
65836;SHT30;52595;51.608;7.216;2023-06-19T14:53:51;31.82;40.63
65836;SHT30;52595;51.608;7.216;2023-06-19T14:56:17;32.40;39.19
65836;SHT30;52595;51.608;7.216;2023-06-19T14:58:42;32.59;39.14
65836;SHT30;52595;51.608;7.216;2023-06-19T15:01:08;33.18;38.67
65836;SHT30;52595;51.608;7.216;2023-06-19T15:03:34;32.67;38.11
65836;SHT30;52595;51.608;7.216;2023-06-19T15:06:00;32.08;39.24
65836;SHT30;52595;51.608;7.216;2023-06-19T15:08:25;32.28;39.55
65836;SHT30;52595;51.608;7.216;2023-06-19T15:10:51;32.28;39.37
65836;SHT30;52595;51.608;7.216;2023-06-19T15:13:16;32.90;38.97
65836;SHT30;52595;51.608;7.216;2023-06-19T15:15:43;33.35;38.14
65836;SHT30;52595;51.608;7.216;2023-06-19T15:18:09;33.34;38.08
65836;SHT30;52595;51.608;7.216;2023-06-19T15:20:34;33.08;38.22
65836;SHT30;52595;51.608;7.216;2023-06-19T15:22:59;32.73;39.09
65836;SHT30;52595;51.608;7.216;2023-06-19T15:25:25;33.33;38.48
65836;SHT30;52595;51.608;7.216;2023-06-19T15:27:50;33.11;38.13
65836;SHT30;52595;51.608;7.216;2023-06-19T15:30:16;33.54;37.73
65836;SHT30;52595;51.608;7.216;2023-06-19T15:32:41;34.19;36.99
65836;SHT30;52595;51.608;7.216;2023-06-19T15:35:07;32.33;38.95